Currently 74°F in Simi Valley, California, USA
74°F
75°F / 57°F
6 mph NW
0.00"
Saturday, June 15, 2019 3:41 PM PDT

Simi Valley, California Weather Summary
Last 36 Hours

Temperature Winds Hourly Humidity Dewpoint
Time Report Norm Report Norm Max Gusts Precip. Rpt. Norm Rpt. Norm Pressure
1Sat 03:41 PM  74.4°F  79°F  6 mph NW  7 mph  14 mph  0.00"  58%  47%  58°F  57°F  N/A
2Sat 03:23 PM  74.9°F  79°F  9 mph W  7 mph  13 mph  ----  59%  47%  59°F  57°F  N/A
Sat 03:00 PM  74.5°F  79°F  6 mph SW  7 mph  15 mph  0.00"  59%  48%  59°F  57°F  N/A
Sat 02:00 PM  72.7°F  79°F  8 mph SW  7 mph  16 mph  0.00"  62%  48%  58°F  57°F  N/A
Sat 01:00 PM  73.3°F  78°F  5 mph W  7 mph  13 mph  0.00"  61%  50%  58°F  57°F  N/A
Sat 12:00 PM  70.0°F  77°F  1 mph E  5 mph  7 mph  0.00"  69%  52%  59°F  57°F  N/A
Sat 11:00 AM  67.4°F  74°F  2 mph SE  5 mph  7 mph  0.00"  77%  57%  60°F  57°F  N/A
Sat 10:00 AM  63.6°F  70°F  2 mph S  3 mph  6 mph  0.00"  83%  63%  58°F  57°F  N/A
Sat 09:00 AM  61.9°F  67°F  calm  3 mph  7 mph  0.00"  86%  70%  57°F  56°F  N/A
Sat 08:00 AM  60.8°F  63°F  calm  2 mph  6 mph  0.00"  87%  76%  57°F  55°F  N/A
Sat 07:00 AM  60.7°F  60°F  2 mph E  2 mph  6 mph  0.00"  87%  79%  57°F  53°F  N/A
Sat 06:00 AM  60.6°F  59°F  3 mph SE  2 mph  7 mph  0.00"  86%  79%  56°F  52°F  N/A
Sat 05:00 AM  60.5°F  59°F  3 mph SE  2 mph  6 mph  0.00"  85%  78%  56°F  52°F  N/A
Sat 04:00 AM  60.2°F  59°F  3 mph SE  1 mph  6 mph  0.00"  86%  77%  56°F  52°F  N/A
Sat 03:00 AM  58.7°F  60°F  calm  2 mph  6 mph  0.00"  86%  77%  54°F  52°F  N/A
3Sat 02:15 AM  57.4°F  60°F  2 mph SW  1 mph  6 mph  ----  85%  76%  53°F  52°F  N/A
Sat 02:00 AM  57.7°F  60°F  3 mph NW  1 mph  4 mph  0.00"  85%  75%  53°F  52°F  N/A
Sat 01:00 AM  59.0°F  61°F  calm  1 mph  4 mph  0.00"  84%  74%  54°F  52°F  N/A
Sat 12:00 AM  61.3°F  62°F  1 mph W  2 mph  5 mph  0.00"  84%  73%  56°F  53°F  N/A
Fri 11:00 PM  61.5°F  63°F  2 mph W  2 mph  9 mph  0.00"  85%  71%  57°F  53°F  N/A
Fri 10:00 PM  61.9°F  65°F  5 mph W  1 mph  8 mph  0.00"  83%  69%  57°F  54°F  N/A
Fri 09:00 PM  62.7°F  67°F  6 mph W  3 mph  10 mph  0.00"  82%  67%  57°F  55°F  N/A
Fri 08:00 PM  63.4°F  70°F  7 mph NW  4 mph  11 mph  0.00"  80%  62%  57°F  56°F  N/A
Fri 07:00 PM  65.0°F  74°F  8 mph NW  5 mph  15 mph  0.00"  77%  55%  57°F  56°F  N/A
Fri 06:00 PM  68.1°F  76°F  8 mph W  6 mph  18 mph  0.00"  71%  52%  58°F  56°F  N/A
Fri 05:00 PM  71.2°F  77°F  8 mph W  7 mph  17 mph  0.00"  64%  50%  58°F  57°F  N/A
Fri 04:00 PM  71.8°F  78°F  9 mph NW  7 mph  17 mph  0.00"  62%  49%  58°F  57°F  N/A
Fri 03:00 PM  72.9°F  79°F  7 mph W  7 mph  16 mph  0.00"  61%  49%  58°F  57°F  N/A
Fri 02:00 PM  73.4°F  79°F  6 mph W  7 mph  15 mph  0.00"  59%  49%  58°F  57°F  N/A
Fri 01:00 PM  70.5°F  78°F  5 mph W  7 mph  10 mph  0.00"  63%  50%  57°F  57°F  N/A
Fri 12:00 PM  68.3°F  76°F  3 mph W  5 mph  7 mph  0.00"  67%  53%  56°F  57°F  N/A
Fri 11:00 AM  65.8°F  73°F  1 mph SE  5 mph  10 mph  0.00"  76%  58%  58°F  57°F  N/A
Fri 10:00 AM  63.5°F  70°F  1 mph E  3 mph  8 mph  0.00"  80%  64%  57°F  57°F  N/A
Fri 09:00 AM  62.0°F  66°F  3 mph SE  3 mph  7 mph  0.00"  84%  71%  57°F  56°F  N/A
Fri 08:00 AM  61.1°F  63°F  3 mph S  2 mph  7 mph  0.00"  86%  77%  57°F  55°F  N/A
Fri 07:00 AM  60.7°F  60°F  1 mph E  2 mph  7 mph  0.00"  86%  80%  56°F  53°F  N/A
Fri 06:00 AM  60.4°F  58°F  2 mph E  2 mph  8 mph  0.00"  86%  79%  56°F  52°F  N/A
Fri 05:00 AM  60.6°F  59°F  6 mph S  2 mph  8 mph  0.00"  86%  79%  56°F  52°F  N/A
Fri 04:00 AM  60.9°F  59°F  4 mph SE  1 mph  7 mph  0.00"  85%  78%  56°F  52°F  N/A

  1. Current weather data. No green row appears if the current weather data is also the high or low for the current day.
  2. High temperature for the current day.
  3. Low temperature for the current day.

The Simi Valley, California weather pages are a service of WeatherCurrents.
Copyright ©2019  WeatherCurrents. All rights reserved. - Submit questions and comments - Privacy Policy

This page automatically refreshes every 10 minutes.